createdAt,value
2018-04-28T00:00:08.439Z,95103.38
2018-04-28T00:02:36.824Z,95102.34
2018-04-28T00:05:05.205Z,95104.42
2018-04-28T00:07:33.133Z,95103.48
2018-04-28T00:10:01.274Z,95107.64
2018-04-28T00:12:29.646Z,95107.69
2018-04-28T00:14:57.787Z,95106.30
2018-04-28T00:17:25.687Z,95109.63
2018-04-28T00:19:56.438Z,95104.72
2018-04-28T00:22:27.156Z,95113.02
2018-04-28T00:24:59.480Z,95110.89
2018-04-28T00:27:34.748Z,95116.48
2018-04-28T00:30:12.190Z,95112.66
2018-04-28T00:32:40.330Z,95119.00
2018-04-28T00:35:09.175Z,95120.44
2018-04-28T00:37:54.075Z,95115.69
2018-04-28T00:40:45.057Z,95107.73
2018-04-28T00:43:19.558Z,95128.08
2018-04-28T00:48:47.521Z,95134.28
2018-04-28T00:51:25.325Z,95125.86
2018-04-28T00:54:17.783Z,95133.30
2018-04-28T00:56:52.173Z,95132.95
2018-04-28T00:59:23.416Z,95142.14
2018-04-28T01:01:53.056Z,95148.63
2018-04-28T01:04:26.913Z,95146.37
2018-04-28T01:06:55.334Z,95147.41
2018-04-28T01:09:23.946Z,95140.91
2018-04-28T01:11:51.850Z,95154.33
2018-04-28T01:14:20.419Z,95145.86
2018-04-28T01:16:52.819Z,95157.16
2018-04-28T01:19:26.425Z,95148.47
2018-04-28T01:21:54.368Z,95153.19
2018-04-28T01:24:33.097Z,95151.83
2018-04-28T01:27:07.543Z,95144.16
2018-04-28T01:29:36.235Z,95153.14
2018-04-28T01:32:12.750Z,95152.97
2018-04-28T01:38:00.776Z,95159.27
2018-04-28T01:40:28.750Z,95150.69
2018-04-28T01:43:03.269Z,95142.79
2018-04-28T01:45:42.875Z,95147.80
2018-04-28T01:51:11.810Z,95147.11
2018-04-28T01:57:09.916Z,95152.36
2018-04-28T02:03:06.623Z,95159.69
2018-04-28T02:05:41.222Z,95158.07
2018-04-28T02:08:24.845Z,95152.08
2018-04-28T02:10:58.375Z,95153.34
2018-04-28T02:13:34.959Z,95149.98
2018-04-28T02:16:02.863Z,95158.05
2018-04-28T02:18:35.478Z,95160.45
2018-04-28T02:24:38.380Z,95164.77
2018-04-28T02:27:15.504Z,95162.45
2018-04-28T02:32:57.439Z,95168.77
2018-04-28T02:35:32.935Z,95153.03
2018-04-28T02:38:04.842Z,95165.86
2018-04-28T02:40:40.916Z,95173.22
2018-04-28T02:43:09.611Z,95168.97
2018-04-28T02:48:58.629Z,95179.37
2018-04-28T02:51:35.085Z,95188.48
2018-04-28T02:57:17.760Z,95192.16
2018-04-28T02:59:47.493Z,95191.39
2018-04-28T03:05:25.988Z,95198.45
2018-04-28T03:08:02.547Z,95199.44
2018-04-28T03:13:33.550Z,95213.59
2018-04-28T03:16:02.102Z,95208.52
2018-04-28T03:18:31.733Z,95206.06
2018-04-28T03:20:59.679Z,95207.16
2018-04-28T03:23:31.245Z,95206.83
2018-04-28T03:25:59.994Z,95211.45
2018-04-28T03:28:30.730Z,95214.61
2018-04-28T03:30:59.398Z,95209.76
2018-04-28T03:36:28.228Z,95225.30
2018-04-28T03:39:02.074Z,95223.77
2018-04-28T03:41:31.535Z,95229.34
2018-04-28T03:47:38.408Z,95224.42
2018-04-28T03:50:38.796Z,95229.31
2018-04-28T03:53:07.479Z,95237.52
2018-04-28T03:55:37.036Z,95235.64
2018-04-28T03:58:16.681Z,95239.95
2018-04-28T04:00:56.296Z,95240.13
2018-04-28T04:03:24.898Z,95240.95
2018-04-28T04:08:57.707Z,95253.23
2018-04-28T04:11:37.351Z,95252.20
2018-04-28T04:17:23.856Z,95258.88
2018-04-28T04:23:15.179Z,95267.02
2018-04-28T04:28:47.803Z,95269.92
2018-04-28T04:31:26.308Z,95268.94
2018-04-28T04:34:04.071Z,95269.56
2018-04-28T04:36:35.649Z,95263.25
2018-04-28T04:39:10.073Z,95272.66
2018-04-28T04:44:50.059Z,95282.50
2018-04-28T04:50:29.210Z,95288.95
2018-04-28T04:53:14.158Z,95292.63
2018-04-28T04:55:48.831Z,95289.36
2018-04-28T04:58:23.269Z,95290.68
2018-04-28T05:04:17.211Z,95302.65
2018-04-28T05:07:07.461Z,95296.55
2018-04-28T05:12:36.184Z,95308.63
2018-04-28T05:15:10.831Z,95308.41
2018-04-28T05:17:40.304Z,95305.50
2018-04-28T05:20:19.929Z,95304.02
2018-04-28T05:23:10.511Z,95310.70
2018-04-28T05:28:58.930Z,95309.08
2018-04-28T05:34:36.038Z,95309.33
2018-04-28T05:37:15.522Z,95320.31
2018-04-28T05:46:23.509Z,95316.91
2018-04-28T05:52:07.959Z,95327.18
2018-04-28T05:54:50.717Z,95325.45
2018-04-28T05:57:31.342Z,95324.03
2018-04-28T06:00:13.158Z,95326.05
2018-04-28T06:02:50.865Z,95334.45
2018-04-28T06:05:26.623Z,95333.68
2018-04-28T06:14:49.989Z,95338.47
2018-04-28T06:17:23.359Z,95332.12
2018-04-28T06:20:05.890Z,95338.83
2018-04-28T06:22:34.407Z,95334.72
2018-04-28T06:25:02.792Z,95333.27
2018-04-28T06:27:31.290Z,95341.19
2018-04-28T06:29:59.985Z,95339.13
2018-04-28T06:32:28.437Z,95336.78
2018-04-28T06:34:56.817Z,95337.66
2018-04-28T06:37:25.190Z,95337.38
2018-04-28T06:39:53.336Z,95337.21
2018-04-28T06:42:21.748Z,95339.38
2018-04-28T06:44:50.167Z,95345.33
2018-04-28T06:47:18.553Z,95350.43
2018-04-28T06:49:47.052Z,95343.59
2018-04-28T06:52:15.440Z,95343.77
2018-04-28T06:54:43.819Z,95343.94
2018-04-28T06:57:12.195Z,95347.55
2018-04-28T06:59:40.576Z,95344.94
2018-04-28T07:02:09.522Z,95350.80
2018-04-28T07:04:37.926Z,95350.72
2018-04-28T07:07:06.002Z,95363.77
2018-04-28T07:09:34.397Z,95355.09
2018-04-28T07:12:02.779Z,95363.08
2018-04-28T07:14:31.152Z,95359.39
2018-04-28T07:16:59.358Z,95362.16
2018-04-28T07:19:27.255Z,95360.30
2018-04-28T07:21:55.646Z,95366.01
2018-04-28T07:24:24.032Z,95368.38
2018-04-28T07:26:54.428Z,95369.98
2018-04-28T07:29:22.850Z,95373.80
2018-04-28T07:31:51.240Z,95367.39
2018-04-28T07:34:19.721Z,95366.42
2018-04-28T07:36:48.103Z,95365.73
2018-04-28T07:39:16.479Z,95367.73
2018-04-28T07:41:44.954Z,95372.69
2018-04-28T07:44:14.707Z,95366.67
2018-04-28T07:46:43.107Z,95367.28
2018-04-28T07:49:11.482Z,95370.17
2018-04-28T07:51:39.874Z,95363.66
2018-04-28T07:54:08.389Z,95366.59
2018-04-28T07:56:36.991Z,95374.41
2018-04-28T07:59:05.370Z,95374.45
2018-04-28T08:01:33.770Z,95376.17
2018-04-28T08:04:02.181Z,95370.29
2018-04-28T08:06:30.566Z,95373.23
2018-04-28T08:08:58.703Z,95375.89
2018-04-28T08:11:27.119Z,95370.32
2018-04-28T08:13:55.498Z,95379.88
2018-04-28T08:16:23.915Z,95371.75
2018-04-28T08:18:52.295Z,95366.91
2018-04-28T08:21:20.671Z,95370.47
2018-04-28T08:23:49.085Z,95368.56
2018-04-28T08:26:17.006Z,95362.33
2018-04-28T08:28:45.492Z,95356.47
2018-04-28T08:31:16.692Z,95377.67
2018-04-28T08:33:45.678Z,95364.12
2018-04-28T08:36:13.821Z,95354.33
2018-04-28T08:38:42.452Z,95368.83
2018-04-28T08:41:18.062Z,95369.63
2018-04-28T08:43:46.479Z,95361.47
2018-04-28T08:46:14.855Z,95367.85
2018-04-28T08:48:43.026Z,95355.94
2018-04-28T08:51:11.408Z,95363.97
2018-04-28T08:53:39.794Z,95367.53
2018-04-28T08:56:08.189Z,95375.08
2018-04-28T08:58:36.575Z,95361.55
2018-04-28T09:01:04.476Z,95361.87
2018-04-28T09:03:32.909Z,95354.92
2018-04-28T09:06:01.279Z,95365.06
2018-04-28T09:08:29.827Z,95356.53
2018-04-28T09:10:58.326Z,95353.75
2018-04-28T09:13:26.717Z,95351.25
2018-04-28T09:15:55.098Z,95356.27
2018-04-28T09:18:23.479Z,95349.31
2018-04-28T09:20:51.904Z,95347.61
2018-04-28T09:23:20.274Z,95345.31
2018-04-28T09:25:48.699Z,95346.74
2018-04-28T09:28:17.071Z,95338.62
2018-04-28T09:30:45.496Z,95341.66
2018-04-28T09:33:13.679Z,95338.45
2018-04-28T09:35:42.048Z,95338.64
2018-04-28T09:38:10.428Z,95337.78
2018-04-28T09:40:38.815Z,95343.83
2018-04-28T09:43:07.191Z,95339.97
2018-04-28T09:45:35.613Z,95336.13
2018-04-28T09:48:03.996Z,95331.42
2018-04-28T09:50:32.427Z,95328.94
2018-04-28T09:53:00.853Z,95327.02
2018-04-28T09:55:29.232Z,95326.02
2018-04-28T09:58:05.912Z,95325.89
2018-04-28T10:03:45.546Z,95312.75
2018-04-28T10:06:13.947Z,95314.23
2018-04-28T10:08:42.407Z,95307.11
2018-04-28T10:11:10.801Z,95306.30
2018-04-28T10:13:39.169Z,95298.91
2018-04-28T10:16:07.556Z,95291.46
2018-04-28T10:18:35.931Z,95290.77
2018-04-28T10:21:04.680Z,95290.68
2018-04-28T10:23:33.079Z,95282.63
2018-04-28T10:26:01.518Z,95278.84
2018-04-28T10:28:30.012Z,95285.60
2018-04-28T10:30:58.550Z,95269.92
2018-04-28T10:33:27.053Z,95272.58
2018-04-28T10:35:55.897Z,95266.27
2018-04-28T10:38:24.310Z,95259.73
2018-04-28T10:40:52.696Z,95258.45
2018-04-28T10:43:21.067Z,95257.28
2018-04-28T10:45:49.470Z,95260.09
2018-04-28T10:48:17.866Z,95263.22
2018-04-28T10:50:47.142Z,95259.16
2018-04-28T10:53:15.559Z,95256.91
2018-04-28T10:55:43.940Z,95246.52
2018-04-28T10:58:12.366Z,95241.62
2018-04-28T11:00:40.915Z,95244.30
2018-04-28T11:03:09.282Z,95246.70
2018-04-28T11:05:37.661Z,95240.04
2018-04-28T11:08:06.271Z,95235.78
2018-04-28T11:10:34.682Z,95238.98
2018-04-28T11:13:03.069Z,95235.91
2018-04-28T11:15:31.508Z,95230.95
2018-04-28T11:17:59.923Z,95230.83
2018-04-28T11:20:28.314Z,95232.84
2018-04-28T11:22:56.731Z,95229.37
2018-04-28T11:25:25.246Z,95231.51
2018-04-28T11:27:53.414Z,95219.84
2018-04-28T11:30:21.825Z,95226.17
2018-04-28T11:32:50.261Z,95218.94
2018-04-28T11:35:18.813Z,95210.50
2018-04-28T11:37:47.253Z,95216.91
2018-04-28T11:40:15.465Z,95213.59
2018-04-28T11:42:44.556Z,95207.13
2018-04-28T11:45:12.947Z,95204.61
2018-04-28T11:47:54.803Z,95197.90
2018-04-28T11:50:23.225Z,95191.98
2018-04-28T11:52:51.631Z,95182.10
2018-04-28T11:55:20.016Z,95180.84
2018-04-28T11:57:48.391Z,95166.78
2018-04-28T12:00:16.770Z,95165.44
2018-04-28T12:02:45.198Z,95168.09
2018-04-28T12:05:13.672Z,95162.59
2018-04-28T12:07:42.168Z,95158.11
2018-04-28T12:10:10.564Z,95154.83
2018-04-28T12:12:39.123Z,95148.39
2018-04-28T12:15:07.630Z,95146.65
2018-04-28T12:17:36.007Z,95136.92
2018-04-28T12:20:04.139Z,95136.12
2018-04-28T12:22:32.553Z,95128.87
2018-04-28T12:25:00.967Z,95128.01
2018-04-28T12:27:29.363Z,95124.79
2018-04-28T12:29:57.752Z,95122.20
2018-04-28T12:32:26.298Z,95124.38
2018-04-28T12:34:54.699Z,95122.78
2018-04-28T12:37:25.671Z,95120.00
2018-04-28T12:39:54.088Z,95115.15
2018-04-28T12:42:22.463Z,95116.84
2018-04-28T12:44:51.708Z,95109.79
2018-04-28T12:47:20.099Z,95106.22
2018-04-28T12:49:48.471Z,95103.22
2018-04-28T12:52:16.875Z,95095.83
2018-04-28T12:54:45.270Z,95092.64
2018-04-28T12:57:13.650Z,95086.50
2018-04-28T12:59:42.083Z,95089.58
2018-04-28T13:02:10.528Z,95082.88
2018-04-28T13:04:38.955Z,95075.53
2018-04-28T13:07:07.488Z,95072.59
2018-04-28T13:09:35.634Z,95065.87
2018-04-28T13:12:04.019Z,95069.06
2018-04-28T13:14:33.131Z,95061.13
2018-04-28T13:17:01.507Z,95063.01
2018-04-28T13:19:29.939Z,95068.39
2018-04-28T13:21:58.336Z,95070.66
2018-04-28T13:24:26.729Z,95072.54
2018-04-28T13:26:55.177Z,95070.28
2018-04-28T13:29:23.705Z,95065.47
2018-04-28T13:31:52.073Z,95070.99
2018-04-28T13:34:20.453Z,95068.84
2018-04-28T13:36:48.860Z,95066.88
2018-04-28T13:39:17.330Z,95060.52
2018-04-28T13:41:45.913Z,95060.28
2018-04-28T13:44:14.290Z,95054.37
2018-04-28T13:46:42.666Z,95047.09
2018-04-28T13:49:11.045Z,95041.89
2018-04-28T13:51:39.479Z,95040.83
2018-04-28T13:54:07.866Z,95033.36
2018-04-28T13:56:36.281Z,95028.53
2018-04-28T13:59:04.854Z,95018.92
2018-04-28T14:01:33.272Z,95020.93
2018-04-28T14:04:01.663Z,95012.92
2018-04-28T14:06:29.879Z,95019.37
2018-04-28T14:08:58.049Z,95021.97
2018-04-28T14:11:26.442Z,95011.39
2018-04-28T14:13:54.809Z,95018.23
2018-04-28T14:16:23.239Z,95021.98
2018-04-28T14:18:51.667Z,95018.67
2018-04-28T14:21:20.071Z,95018.00
2018-04-28T14:23:48.221Z,95006.48
2018-04-28T14:26:16.598Z,95011.59
2018-04-28T14:28:45.036Z,95010.49
2018-04-28T14:31:13.424Z,95014.05
2018-04-28T14:33:41.802Z,95010.69
2018-04-28T14:36:10.220Z,95012.12
2018-04-28T14:38:38.642Z,95021.91
2018-04-28T14:41:07.011Z,95015.31
2018-04-28T14:43:35.923Z,95014.59
2018-04-28T14:46:04.304Z,95011.97
2018-04-28T14:48:32.882Z,95008.28
2018-04-28T14:51:01.280Z,95007.69
2018-04-28T14:53:29.669Z,95003.42
2018-04-28T14:55:58.033Z,95005.69
2018-04-28T14:58:26.410Z,95006.93
2018-04-28T15:00:54.827Z,95008.60
2018-04-28T15:03:23.373Z,95009.75
2018-04-28T15:05:51.744Z,95009.23
2018-04-28T15:08:20.124Z,95007.54
2018-04-28T15:10:48.534Z,95000.94
2018-04-28T15:13:16.963Z,95007.09
2018-04-28T15:15:46.637Z,95010.32
2018-04-28T15:18:15.015Z,95008.35
2018-04-28T15:20:43.619Z,95012.28
2018-04-28T15:23:11.994Z,95021.28
2018-04-28T15:25:40.875Z,95027.79
2018-04-28T15:28:09.288Z,95023.64
2018-04-28T15:30:37.665Z,95030.19
2018-04-28T15:33:06.033Z,95031.89
2018-04-28T15:35:34.476Z,95027.52
2018-04-28T15:38:02.615Z,95033.72
2018-04-28T15:40:31.011Z,95027.97
2018-04-28T15:42:59.485Z,95032.16
2018-04-28T15:45:27.852Z,95045.40
2018-04-28T15:47:56.276Z,95035.55
2018-04-28T15:50:24.726Z,95045.18
2018-04-28T15:52:53.174Z,95040.26
2018-04-28T15:55:21.628Z,95045.77
2018-04-28T15:57:54.478Z,95050.17
2018-04-28T16:00:22.902Z,95040.56
2018-04-28T16:02:51.327Z,95046.17
2018-04-28T16:05:20.734Z,95039.37
2018-04-28T16:07:49.111Z,95046.82
2018-04-28T16:10:17.491Z,95047.09
2018-04-28T16:12:45.866Z,95046.95
2018-04-28T16:15:14.263Z,95039.08
2018-04-28T16:17:46.876Z,95043.75
2018-04-28T16:20:15.252Z,95038.41
2018-04-28T16:22:43.392Z,95032.92
2018-04-28T16:25:11.778Z,95043.35
2018-04-28T16:27:40.145Z,95042.02
2018-04-28T16:30:08.581Z,95047.52
2018-04-28T16:32:36.958Z,95051.77
2018-04-28T16:35:05.376Z,95055.39
2018-04-28T16:37:36.067Z,95054.30
2018-04-28T16:40:04.457Z,95038.81
2018-04-28T16:42:32.862Z,95054.17
2018-04-28T16:45:01.246Z,95050.66
2018-04-28T16:47:29.684Z,95054.39
2018-04-28T16:49:58.167Z,95051.02
2018-04-28T16:52:26.560Z,95060.63
2018-04-28T16:54:55.009Z,95065.92
2018-04-28T16:57:23.398Z,95066.19
2018-04-28T16:59:51.837Z,95062.93
2018-04-28T17:02:20.224Z,95062.13
2018-04-28T17:04:48.644Z,95065.70
2018-04-28T17:07:17.026Z,95068.63
2018-04-28T17:09:45.420Z,95063.92
2018-04-28T17:12:14.333Z,95066.83
2018-04-28T17:14:43.431Z,95081.73
2018-04-28T17:17:11.900Z,95074.91
2018-04-28T17:19:40.405Z,95075.28
2018-04-28T17:22:10.229Z,95077.09
2018-04-28T17:24:42.243Z,95084.95
2018-04-28T17:27:10.999Z,95085.16
2018-04-28T17:29:39.410Z,95086.16
2018-04-28T17:32:08.626Z,95092.42
2018-04-28T17:34:37.021Z,95094.97
2018-04-28T17:37:05.486Z,95095.19
2018-04-28T17:39:34.038Z,95095.55
2018-04-28T17:42:02.484Z,95110.16
2018-04-28T17:44:30.865Z,95105.34
2018-04-28T17:46:59.420Z,95108.42
2018-04-28T17:49:27.824Z,95110.78
2018-04-28T17:51:56.259Z,95112.36
2018-04-28T17:54:24.749Z,95113.41
2018-04-28T17:56:53.122Z,95119.48
2018-04-28T17:59:21.690Z,95125.97
2018-04-28T18:01:50.232Z,95126.43
2018-04-28T18:04:19.550Z,95129.25
2018-04-28T18:06:47.931Z,95120.36
2018-04-28T18:09:16.931Z,95119.42
2018-04-28T18:11:45.358Z,95118.06
2018-04-28T18:14:13.734Z,95121.96
2018-04-28T18:16:42.123Z,95127.81
2018-04-28T18:19:10.503Z,95133.38
2018-04-28T18:21:38.881Z,95132.95
2018-04-28T18:24:10.289Z,95134.97
2018-04-28T18:26:39.751Z,95137.92
2018-04-28T18:29:08.137Z,95135.91
2018-04-28T18:31:36.523Z,95141.91
2018-04-28T18:34:04.670Z,95147.00
2018-04-28T18:36:33.076Z,95146.52
2018-04-28T18:39:01.457Z,95150.87
2018-04-28T18:41:29.844Z,95145.87
2018-04-28T18:43:59.071Z,95157.08
2018-04-28T18:46:27.543Z,95156.07
2018-04-28T18:48:56.038Z,95159.42
2018-04-28T18:51:24.462Z,95152.36
2018-04-28T18:53:52.835Z,95164.33
2018-04-28T18:56:21.249Z,95169.61
2018-04-28T18:58:49.619Z,95169.91
2018-04-28T19:01:17.998Z,95172.92
2018-04-28T19:03:46.383Z,95170.66
2018-04-28T19:06:14.788Z,95171.50
2018-04-28T19:08:42.985Z,95172.84
2018-04-28T19:11:11.140Z,95182.67
2018-04-28T19:13:39.589Z,95181.34
2018-04-28T19:16:07.971Z,95169.97
2018-04-28T19:18:36.353Z,95173.92
2018-04-28T19:21:04.723Z,95182.03
2018-04-28T19:23:33.104Z,95178.72
2018-04-28T19:26:01.504Z,95184.45
2018-04-28T19:28:40.322Z,95188.28
2018-04-28T19:31:09.206Z,95181.87
2018-04-28T19:33:37.799Z,95178.60
2018-04-28T19:36:06.248Z,95181.78
2018-04-28T19:38:34.635Z,95178.27
2018-04-28T19:41:02.778Z,95177.54
2018-04-28T19:43:31.207Z,95178.58
2018-04-28T19:45:59.611Z,95189.02
2018-04-28T19:48:28.001Z,95181.92
2018-04-28T19:50:56.158Z,95185.49
2018-04-28T19:53:24.542Z,95180.81
2018-04-28T19:55:52.709Z,95172.67
2018-04-28T19:58:21.140Z,95181.22
2018-04-28T20:00:49.517Z,95183.51
2018-04-28T20:03:17.924Z,95185.44
2018-04-28T20:05:46.330Z,95183.06
2018-04-28T20:08:14.732Z,95189.28
2018-04-28T20:10:43.107Z,95175.36
2018-04-28T20:13:11.503Z,95174.63
2018-04-28T20:15:39.899Z,95176.81
2018-04-28T20:18:08.283Z,95180.02
2018-04-28T20:20:36.659Z,95182.95
2018-04-28T20:23:16.243Z,95182.22
2018-04-28T20:25:44.616Z,95178.17
2018-04-28T20:28:13.025Z,95178.59
2018-04-28T20:30:41.663Z,95182.00
2018-04-28T20:33:10.132Z,95182.67
2018-04-28T20:35:38.615Z,95189.05
2018-04-28T20:38:07.020Z,95180.91
2018-04-28T20:40:35.493Z,95182.69
2018-04-28T20:43:03.869Z,95185.75
2018-04-28T20:45:32.306Z,95183.37
2018-04-28T20:48:00.694Z,95173.89
2018-04-28T20:50:29.089Z,95181.48
2018-04-28T20:52:57.529Z,95181.95
2018-04-28T20:55:25.915Z,95184.46
2018-04-28T20:57:54.302Z,95179.77
2018-04-28T21:00:22.720Z,95185.30
2018-04-28T21:02:51.098Z,95184.48
2018-04-28T21:05:19.529Z,95179.05
2018-04-28T21:07:47.965Z,95186.00
2018-04-28T21:10:17.293Z,95181.22
2018-04-28T21:12:45.674Z,95188.00
2018-04-28T21:15:14.091Z,95189.97
2018-04-28T21:17:42.662Z,95195.80
2018-04-28T21:20:11.061Z,95196.09
2018-04-28T21:22:39.437Z,95197.66
2018-04-28T21:25:07.805Z,95196.83
2018-04-28T21:27:36.182Z,95192.38
2018-04-28T21:30:05.805Z,95195.44
2018-04-28T21:32:34.532Z,95202.63
2018-04-28T21:35:02.909Z,95201.55
2018-04-28T21:37:31.350Z,95202.91
2018-04-28T21:39:59.728Z,95203.37
2018-04-28T21:42:28.095Z,95205.13
2018-04-28T21:44:56.481Z,95206.60
2018-04-28T21:47:24.894Z,95207.17
2018-04-28T21:49:53.275Z,95203.59
2018-04-28T21:52:22.431Z,95208.84
2018-04-28T21:54:50.853Z,95207.72
2018-04-28T21:57:19.235Z,95207.78
2018-04-28T21:59:47.620Z,95213.97
2018-04-28T22:02:15.990Z,95217.14
2018-04-28T22:04:44.424Z,95221.89
2018-04-28T22:07:13.077Z,95215.56
2018-04-28T22:09:41.839Z,95218.33
2018-04-28T22:12:10.256Z,95215.42
2018-04-28T22:14:38.631Z,95209.45
2018-04-28T22:17:07.016Z,95214.84
2018-04-28T22:19:35.386Z,95224.55
2018-04-28T22:22:03.795Z,95222.85
2018-04-28T22:24:32.168Z,95227.23
2018-04-28T22:27:00.551Z,95226.42
2018-04-28T22:29:28.925Z,95230.52
2018-04-28T22:31:57.298Z,95226.72
2018-04-28T22:34:25.716Z,95226.27
2018-04-28T22:36:53.935Z,95220.84
2018-04-28T22:39:22.311Z,95218.71
2018-04-28T22:41:50.688Z,95218.88
2018-04-28T22:44:19.075Z,95218.95
2018-04-28T22:46:47.434Z,95218.59
2018-04-28T22:49:15.991Z,95209.44
2018-04-28T22:51:44.354Z,95207.19
2018-04-28T22:54:12.784Z,95205.05
2018-04-28T22:56:41.198Z,95209.97
2018-04-28T22:59:09.600Z,95212.27
2018-04-28T23:01:37.975Z,95209.61
2018-04-28T23:04:06.346Z,95204.95
2018-04-28T23:06:34.718Z,95208.02
2018-04-28T23:09:03.151Z,95205.65
2018-04-28T23:11:31.336Z,95209.26
2018-04-28T23:13:59.750Z,95201.88
2018-04-28T23:16:28.158Z,95199.86
2018-04-28T23:18:56.531Z,95195.48
2018-04-28T23:21:25.110Z,95195.84
2018-04-28T23:23:53.250Z,95197.91
2018-04-28T23:26:21.618Z,95199.86
2018-04-28T23:28:49.986Z,95196.23
2018-04-28T23:31:18.357Z,95195.20
2018-04-28T23:33:46.783Z,95191.47
2018-04-28T23:36:15.202Z,95196.71
2018-04-28T23:38:43.576Z,95184.09
2018-04-28T23:41:11.949Z,95193.55
2018-04-28T23:43:40.319Z,95194.16
2018-04-28T23:46:08.731Z,95202.08
2018-04-28T23:48:37.110Z,95192.96
2018-04-28T23:51:05.527Z,95189.86
2018-04-28T23:53:33.908Z,95194.85
2018-04-28T23:56:02.320Z,95190.87
2018-04-28T23:58:30.749Z,95190.99
